sensor_id;sensor_type;location;lat;lon;timestamp;pressure;altitude;pressure_sealevel;temperature;humidity
26807;BME280;14380;49.910;6.792;2023-04-05T00:01:00;99486.72;;;0.35;93.76
26807;BME280;14380;49.910;6.792;2023-04-05T00:03:27;99491.91;;;0.38;95.37
26807;BME280;14380;49.910;6.792;2023-04-05T00:05:54;99494.53;;;0.14;96.08
26807;BME280;14380;49.910;6.792;2023-04-05T00:08:21;99495.44;;;0.12;96.13
26807;BME280;14380;49.910;6.792;2023-04-05T00:10:51;99489.31;;;0.25;95.23
26807;BME280;14380;49.910;6.792;2023-04-05T00:13:20;99487.59;;;0.27;93.49
26807;BME280;14380;49.910;6.792;2023-04-05T00:15:47;99485.91;;;0.11;93.77
26807;BME280;14380;49.910;6.792;2023-04-05T00:18:14;99481.56;;;0.07;93.69
26807;BME280;14380;49.910;6.792;2023-04-05T00:20:48;99485.91;;;0.11;93.28
26807;BME280;14380;49.910;6.792;2023-04-05T00:23:15;99485.88;;;0.29;92.56
26807;BME280;14380;49.910;6.792;2023-04-05T00:25:43;99479.84;;;0.21;91.22
26807;BME280;14380;49.910;6.792;2023-04-05T00:28:10;99478.97;;;0.16;90.50
26807;BME280;14380;49.910;6.792;2023-04-05T00:30:38;99485.88;;;0.23;91.24
26807;BME280;14380;49.910;6.792;2023-04-05T00:33:05;99485.03;;;-0.04;95.19
26807;BME280;14380;49.910;6.792;2023-04-05T00:35:32;99484.16;;;-0.12;96.64
26807;BME280;14380;49.910;6.792;2023-04-05T00:37:58;99475.53;;;-0.12;95.11
26807;BME280;14380;49.910;6.792;2023-04-05T00:40:25;99472.94;;;0.00;94.19
26807;BME280;14380;49.910;6.792;2023-04-05T00:42:52;99472.94;;;-0.09;94.29
26807;BME280;14380;49.910;6.792;2023-04-05T00:45:18;99478.13;;;-0.03;92.13
26807;BME280;14380;49.910;6.792;2023-04-05T00:47:47;99473.78;;;0.11;91.86
26807;BME280;14380;49.910;6.792;2023-04-05T00:50:14;99480.72;;;0.02;93.16
26807;BME280;14380;49.910;6.792;2023-04-05T00:52:42;99478.97;;;-0.09;93.30
26807;BME280;14380;49.910;6.792;2023-04-05T00:55:09;99466.88;;;-0.05;92.85
26807;BME280;14380;49.910;6.792;2023-04-05T00:57:37;99466.88;;;-0.18;93.41
26807;BME280;14380;49.910;6.792;2023-04-05T01:00:05;99465.13;;;-0.02;92.84
26807;BME280;14380;49.910;6.792;2023-04-05T01:02:35;99469.47;;;-0.01;92.46
26807;BME280;14380;49.910;6.792;2023-04-05T01:05:20;99470.34;;;-0.12;93.79
26807;BME280;14380;49.910;6.792;2023-04-05T01:07:58;99459.09;;;-0.11;93.75
26807;BME280;14380;49.910;6.792;2023-04-05T01:10:35;99454.78;;;-0.16;95.09
26807;BME280;14380;49.910;6.792;2023-04-05T01:13:04;99456.47;;;-0.04;94.11
26807;BME280;14380;49.910;6.792;2023-04-05T01:15:31;99449.59;;;-0.47;95.71
26807;BME280;14380;49.910;6.792;2023-04-05T01:17:57;99459.09;;;-0.32;95.42
26807;BME280;14380;49.910;6.792;2023-04-05T01:20:32;99453.91;;;-0.32;95.41
26807;BME280;14380;49.910;6.792;2023-04-05T01:23:38;99448.72;;;-0.32;94.88
26807;BME280;14380;49.910;6.792;2023-04-05T01:29:37;99440.06;;;-0.43;95.30
26807;BME280;14380;49.910;6.792;2023-04-05T01:32:14;99440.03;;;-0.55;96.19
26807;BME280;14380;49.910;6.792;2023-04-05T01:34:45;99442.66;;;-0.43;96.06
26807;BME280;14380;49.910;6.792;2023-04-05T01:37:15;99438.31;;;-0.47;95.96
26807;BME280;14380;49.910;6.792;2023-04-05T01:39:43;99439.19;;;-0.43;95.74
26807;BME280;14380;49.910;6.792;2023-04-05T01:42:11;99434.00;;;-0.51;95.86
26807;BME280;14380;49.910;6.792;2023-04-05T01:44:40;99443.50;;;-0.36;96.25
26807;BME280;14380;49.910;6.792;2023-04-05T01:47:06;99432.28;;;-0.49;95.87
26807;BME280;14380;49.910;6.792;2023-04-05T01:49:33;99433.16;;;-0.49;96.26
26807;BME280;14380;49.910;6.792;2023-04-05T01:51:59;99437.47;;;-0.49;97.42
26807;BME280;14380;49.910;6.792;2023-04-05T01:54:26;99431.41;;;-0.48;96.88
26807;BME280;14380;49.910;6.792;2023-04-05T01:56:52;99434.88;;;-0.35;97.06
26807;BME280;14380;49.910;6.792;2023-04-05T01:59:19;99427.97;;;-0.35;97.01
26807;BME280;14380;49.910;6.792;2023-04-05T02:01:47;99433.13;;;-0.30;97.19
26807;BME280;14380;49.910;6.792;2023-04-05T02:04:13;99431.41;;;-0.43;97.13
26807;BME280;14380;49.910;6.792;2023-04-05T02:06:40;99424.47;;;-0.35;97.20
26807;BME280;14380;49.910;6.792;2023-04-05T02:09:06;99427.09;;;-0.27;97.18
26807;BME280;14380;49.910;6.792;2023-04-05T02:11:33;99427.09;;;-0.43;97.89
26807;BME280;14380;49.910;6.792;2023-04-05T02:14:00;99425.38;;;-0.22;97.09
26807;BME280;14380;49.910;6.792;2023-04-05T02:16:26;99421.91;;;-0.27;97.03
26807;BME280;14380;49.910;6.792;2023-04-05T02:18:55;99422.78;;;-0.32;96.77
26807;BME280;14380;49.910;6.792;2023-04-05T02:21:22;99427.09;;;-0.43;96.80
26807;BME280;14380;49.910;6.792;2023-04-05T02:23:50;99428.81;;;-0.50;96.65
26807;BME280;14380;49.910;6.792;2023-04-05T02:26:16;99426.22;;;-0.33;96.33
26807;BME280;14380;49.910;6.792;2023-04-05T02:28:43;99415.84;;;-0.29;96.08
26807;BME280;14380;49.910;6.792;2023-04-05T02:31:10;99414.97;;;-0.24;96.25
26807;BME280;14380;49.910;6.792;2023-04-05T02:33:37;99409.78;;;-0.27;96.36
26807;BME280;14380;49.910;6.792;2023-04-05T02:36:07;99409.81;;;-0.22;96.14
26807;BME280;14380;49.910;6.792;2023-04-05T02:38:34;99409.78;;;-0.24;96.97
26807;BME280;14380;49.910;6.792;2023-04-05T02:41:01;99399.38;;;-0.16;96.88
26807;BME280;14380;49.910;6.792;2023-04-05T02:43:28;99402.00;;;-0.21;96.89
26807;BME280;14380;49.910;6.792;2023-04-05T02:45:55;99402.00;;;-0.21;96.96
26807;BME280;14380;49.910;6.792;2023-04-05T02:48:21;99401.13;;;-0.26;96.84
26807;BME280;14380;49.910;6.792;2023-04-05T02:50:49;99402.88;;;-0.33;97.96
26807;BME280;14380;49.910;6.792;2023-04-05T02:53:17;99393.38;;;-0.49;98.46
26807;BME280;14380;49.910;6.792;2023-04-05T02:55:50;99399.41;;;-0.47;97.36
26807;BME280;14380;49.910;6.792;2023-04-05T02:58:17;99394.22;;;-0.50;98.72
26807;BME280;14380;49.910;6.792;2023-04-05T03:00:44;99401.16;;;-0.43;98.37
26807;BME280;14380;49.910;6.792;2023-04-05T03:03:15;99408.94;;;-0.52;98.10
26807;BME280;14380;49.910;6.792;2023-04-05T03:05:42;99408.06;;;-0.37;96.72
26807;BME280;14380;49.910;6.792;2023-04-05T03:08:08;99404.59;;;-0.47;96.99
26807;BME280;14380;49.910;6.792;2023-04-05T03:10:44;99403.75;;;-0.57;98.23
26807;BME280;14380;49.910;6.792;2023-04-05T03:13:12;99412.38;;;-0.64;98.96
26807;BME280;14380;49.910;6.792;2023-04-05T03:15:39;99411.50;;;-0.62;98.22
26807;BME280;14380;49.910;6.792;2023-04-05T03:18:05;99415.81;;;-0.71;99.31
26807;BME280;14380;49.910;6.792;2023-04-05T03:20:32;99419.28;;;-0.72;100.00
26807;BME280;14380;49.910;6.792;2023-04-05T03:23:05;99418.44;;;-0.70;98.94
26807;BME280;14380;49.910;6.792;2023-04-05T03:25:32;99406.31;;;-0.65;99.07
26807;BME280;14380;49.910;6.792;2023-04-05T03:28:01;99402.00;;;-0.70;99.82
26807;BME280;14380;49.910;6.792;2023-04-05T03:30:27;99403.75;;;-0.68;98.92
26807;BME280;14380;49.910;6.792;2023-04-05T03:32:54;99414.13;;;-0.71;99.19
26807;BME280;14380;49.910;6.792;2023-04-05T03:35:21;99405.44;;;-0.81;99.35
26807;BME280;14380;49.910;6.792;2023-04-05T03:37:50;99408.91;;;-0.83;99.64
26807;BME280;14380;49.910;6.792;2023-04-05T03:40:16;99406.31;;;-0.83;99.55
26807;BME280;14380;49.910;6.792;2023-04-05T03:42:43;99407.16;;;-0.94;99.71
26807;BME280;14380;49.910;6.792;2023-04-05T03:45:12;99407.16;;;-0.94;100.00
26807;BME280;14380;49.910;6.792;2023-04-05T03:47:39;99412.34;;;-0.95;100.00
26807;BME280;14380;49.910;6.792;2023-04-05T03:50:07;99403.72;;;-0.86;98.97
26807;BME280;14380;49.910;6.792;2023-04-05T03:52:33;99411.47;;;-0.99;99.50
26807;BME280;14380;49.910;6.792;2023-04-05T03:55:00;99403.66;;;-1.05;99.48
26807;BME280;14380;49.910;6.792;2023-04-05T03:57:27;99404.53;;;-1.06;99.48
26807;BME280;14380;49.910;6.792;2023-04-05T03:59:53;99401.94;;;-1.05;99.22
26807;BME280;14380;49.910;6.792;2023-04-05T04:02:21;99408.00;;;-1.01;99.21
26807;BME280;14380;49.910;6.792;2023-04-05T04:04:48;99400.22;;;-1.06;100.00
26807;BME280;14380;49.910;6.792;2023-04-05T04:07:15;99408.84;;;-1.14;100.00
26807;BME280;14380;49.910;6.792;2023-04-05T04:09:42;99396.69;;;-1.26;100.00
26807;BME280;14380;49.910;6.792;2023-04-05T04:12:08;99396.75;;;-1.15;100.00
26807;BME280;14380;49.910;6.792;2023-04-05T04:14:35;99404.53;;;-1.12;100.00
26807;BME280;14380;49.910;6.792;2023-04-05T04:17:02;99397.56;;;-1.32;100.00
26807;BME280;14380;49.910;6.792;2023-04-05T04:19:30;99398.44;;;-1.30;100.00
26807;BME280;14380;49.910;6.792;2023-04-05T04:21:56;99398.47;;;-1.16;100.00
26807;BME280;14380;49.910;6.792;2023-04-05T04:24:23;99398.50;;;-1.11;100.00
26807;BME280;14380;49.910;6.792;2023-04-05T04:26:51;99390.72;;;-1.05;100.00
26807;BME280;14380;49.910;6.792;2023-04-05T04:29:18;99390.69;;;-1.13;100.00
26807;BME280;14380;49.910;6.792;2023-04-05T04:31:57;99395.03;;;-1.16;100.00
26807;BME280;14380;49.910;6.792;2023-04-05T04:34:25;99397.59;;;-1.15;100.00
26807;BME280;14380;49.910;6.792;2023-04-05T04:36:56;99383.81;;;-1.08;100.00
26807;BME280;14380;49.910;6.792;2023-04-05T04:39:26;99388.13;;;-1.03;100.00
26807;BME280;14380;49.910;6.792;2023-04-05T04:41:56;99392.44;;;-1.01;100.00
26807;BME280;14380;49.910;6.792;2023-04-05T04:44:22;99387.28;;;-0.95;100.00
26807;BME280;14380;49.910;6.792;2023-04-05T04:46:52;99389.88;;;-0.99;100.00
26807;BME280;14380;49.910;6.792;2023-04-05T04:49:19;99399.38;;;-1.01;100.00
26807;BME280;14380;49.910;6.792;2023-04-05T04:51:45;99400.25;;;-0.95;100.00
26807;BME280;14380;49.910;6.792;2023-04-05T04:54:14;99400.22;;;-0.98;100.00
26807;BME280;14380;49.910;6.792;2023-04-05T04:56:45;99400.25;;;-0.99;100.00
26807;BME280;14380;49.910;6.792;2023-04-05T04:59:12;99396.78;;;-0.97;100.00
26807;BME280;14380;49.910;6.792;2023-04-05T05:01:38;99396.81;;;-0.92;100.00
26807;BME280;14380;49.910;6.792;2023-04-05T05:04:05;99396.78;;;-0.83;100.00
26807;BME280;14380;49.910;6.792;2023-04-05T05:06:33;99401.97;;;-0.97;100.00
26807;BME280;14380;49.910;6.792;2023-04-05T05:08:59;99406.25;;;-1.02;100.00
26807;BME280;14380;49.910;6.792;2023-04-05T05:11:27;99411.44;;;-1.08;100.00
26807;BME280;14380;49.910;6.792;2023-04-05T05:13:54;99411.44;;;-1.14;100.00
26807;BME280;14380;49.910;6.792;2023-04-05T05:16:21;99411.41;;;-1.21;100.00
26807;BME280;14380;49.910;6.792;2023-04-05T05:18:49;99410.50;;;-1.30;100.00
26807;BME280;14380;49.910;6.792;2023-04-05T05:21:16;99412.31;;;-1.08;100.00
26807;BME280;14380;49.910;6.792;2023-04-05T05:23:42;99413.16;;;-1.15;100.00
26807;BME280;14380;49.910;6.792;2023-04-05T05:26:09;99409.75;;;-0.80;99.89
26807;BME280;14380;49.910;6.792;2023-04-05T05:28:38;99409.75;;;-0.95;100.00
26807;BME280;14380;49.910;6.792;2023-04-05T05:31:05;99414.03;;;-1.07;100.00
26807;BME280;14380;49.910;6.792;2023-04-05T05:33:31;99410.59;;;-0.99;100.00
26807;BME280;14380;49.910;6.792;2023-04-05T05:35:58;99408.88;;;-0.90;100.00
26807;BME280;14380;49.910;6.792;2023-04-05T05:38:24;99408.88;;;-0.99;100.00
26807;BME280;14380;49.910;6.792;2023-04-05T05:40:54;99414.03;;;-1.11;100.00
26807;BME280;14380;49.910;6.792;2023-04-05T05:43:21;99410.53;;;-1.18;100.00
26807;BME280;14380;49.910;6.792;2023-04-05T05:45:49;99409.72;;;-1.00;100.00
26807;BME280;14380;49.910;6.792;2023-04-05T05:48:15;99406.31;;;-0.94;100.00
26807;BME280;14380;49.910;6.792;2023-04-05T05:50:43;99409.75;;;-0.84;100.00
26807;BME280;14380;49.910;6.792;2023-04-05T05:53:13;99410.66;;;-0.68;100.00
26807;BME280;14380;49.910;6.792;2023-04-05T05:55:39;99413.22;;;-0.85;100.00
26807;BME280;14380;49.910;6.792;2023-04-05T05:58:06;99408.03;;;-0.90;100.00
26807;BME280;14380;49.910;6.792;2023-04-05T06:00:33;99416.69;;;-0.80;100.00
26807;BME280;14380;49.910;6.792;2023-04-05T06:03:01;99420.19;;;-0.32;100.00
26807;BME280;14380;49.910;6.792;2023-04-05T06:05:28;99421.91;;;-0.68;98.49
26807;BME280;14380;49.910;6.792;2023-04-05T06:07:55;99429.69;;;-0.60;98.11
26807;BME280;14380;49.910;6.792;2023-04-05T06:10:22;99411.50;;;-0.38;96.33
26807;BME280;14380;49.910;6.792;2023-04-05T06:12:49;99411.50;;;-0.38;95.77
26807;BME280;14380;49.910;6.792;2023-04-05T06:15:16;99411.53;;;-0.51;95.22
26807;BME280;14380;49.910;6.792;2023-04-05T06:17:43;99404.63;;;-0.46;96.40
26807;BME280;14380;49.910;6.792;2023-04-05T06:20:11;99403.75;;;-0.43;95.10
26807;BME280;14380;49.910;6.792;2023-04-05T06:22:38;99404.56;;;-0.83;100.00
26807;BME280;14380;49.910;6.792;2023-04-05T06:25:06;99399.41;;;-0.50;99.67
26807;BME280;14380;49.910;6.792;2023-04-05T06:27:33;99398.53;;;-0.29;99.64
26807;BME280;14380;49.910;6.792;2023-04-05T06:29:59;99400.25;;;-0.05;98.62
26807;BME280;14380;49.910;6.792;2023-04-05T06:32:26;99401.94;;;0.07;99.13
26807;BME280;14380;49.910;6.792;2023-04-05T06:34:52;99390.63;;;0.35;95.72
26807;BME280;14380;49.910;6.792;2023-04-05T06:37:20;99397.41;;;0.67;94.18
26807;BME280;14380;49.910;6.792;2023-04-05T06:39:47;99398.97;;;1.02;92.63
26807;BME280;14380;49.910;6.792;2023-04-05T06:42:14;99397.69;;;1.59;92.45
26807;BME280;14380;49.910;6.792;2023-04-05T06:44:40;99395.88;;;1.67;88.36
26807;BME280;14380;49.910;6.792;2023-04-05T06:47:07;99396.63;;;1.82;86.89
26807;BME280;14380;49.910;6.792;2023-04-05T06:49:34;99389.63;;;1.88;87.68
26807;BME280;14380;49.910;6.792;2023-04-05T06:52:00;99390.25;;;2.15;88.81
26807;BME280;14380;49.910;6.792;2023-04-05T06:54:31;99396.91;;;2.40;88.64
26807;BME280;14380;49.910;6.792;2023-04-05T06:56:58;99392.56;;;2.42;88.64
26807;BME280;14380;49.910;6.792;2023-04-05T06:59:26;99397.16;;;2.90;87.26
26807;BME280;14380;49.910;6.792;2023-04-05T07:01:53;99396.41;;;2.78;86.13
26807;BME280;14380;49.910;6.792;2023-04-05T07:04:20;99394.03;;;3.24;87.07
26807;BME280;14380;49.910;6.792;2023-04-05T07:06:47;99396.63;;;3.27;86.56
26807;BME280;14380;49.910;6.792;2023-04-05T07:09:13;99397.22;;;3.45;84.23
26807;BME280;14380;49.910;6.792;2023-04-05T07:11:42;99390.19;;;3.48;86.95
26807;BME280;14380;49.910;6.792;2023-04-05T07:14:09;99387.44;;;3.56;86.32
26807;BME280;14380;49.910;6.792;2023-04-05T07:16:36;99380.19;;;3.75;86.27
26807;BME280;14380;49.910;6.792;2023-04-05T07:19:03;99378.69;;;4.09;86.38
26807;BME280;14380;49.910;6.792;2023-04-05T07:21:30;99379.41;;;4.19;84.93
26807;BME280;14380;49.910;6.792;2023-04-05T07:23:57;99374.69;;;4.38;86.36
26807;BME280;14380;49.910;6.792;2023-04-05T07:26:25;99383.78;;;4.60;85.29
26807;BME280;14380;49.910;6.792;2023-04-05T07:28:53;99379.66;;;4.91;82.36
26807;BME280;14380;49.910;6.792;2023-04-05T07:31:20;99379.91;;;4.38;82.63
26807;BME280;14380;49.910;6.792;2023-04-05T07:33:46;99371.25;;;4.78;82.06
26807;BME280;14380;49.910;6.792;2023-04-05T07:36:13;99370.84;;;4.54;80.49
26807;BME280;14380;49.910;6.792;2023-04-05T07:38:39;99370.13;;;4.88;79.77
26807;BME280;14380;49.910;6.792;2023-04-05T07:41:07;99378.00;;;4.87;79.66
26807;BME280;14380;49.910;6.792;2023-04-05T07:43:34;99374.44;;;4.89;80.05
26807;BME280;14380;49.910;6.792;2023-04-05T07:46:02;99372.00;;;4.83;78.47
26807;BME280;14380;49.910;6.792;2023-04-05T07:48:29;99375.13;;;4.99;79.45
26807;BME280;14380;49.910;6.792;2023-04-05T07:50:56;99374.63;;;4.83;78.30
26807;BME280;14380;49.910;6.792;2023-04-05T07:53:22;99377.72;;;4.58;78.45
26807;BME280;14380;49.910;6.792;2023-04-05T07:55:49;99372.06;;;5.18;78.61
26807;BME280;14380;49.910;6.792;2023-04-05T07:58:17;99367.88;;;5.11;77.45
26807;BME280;14380;49.910;6.792;2023-04-05T08:00:44;99368.38;;;4.89;76.92
26807;BME280;14380;49.910;6.792;2023-04-05T08:03:12;99370.97;;;5.28;77.29
26807;BME280;14380;49.910;6.792;2023-04-05T08:05:38;99360.56;;;5.27;77.47
26807;BME280;14380;49.910;6.792;2023-04-05T08:08:05;99368.91;;;5.41;75.37
26807;BME280;14380;49.910;6.792;2023-04-05T08:10:37;99358.75;;;5.65;75.29
26807;BME280;14380;49.910;6.792;2023-04-05T08:13:04;99358.84;;;5.95;75.13
26807;BME280;14380;49.910;6.792;2023-04-05T08:15:31;99360.94;;;6.15;72.71
26807;BME280;14380;49.910;6.792;2023-04-05T08:17:58;99359.22;;;6.14;70.84
26807;BME280;14380;49.910;6.792;2023-04-05T08:20:26;99357.47;;;6.15;71.29
26807;BME280;14380;49.910;6.792;2023-04-05T08:22:52;99354.56;;;6.25;70.43
26807;BME280;14380;49.910;6.792;2023-04-05T08:25:19;99347.25;;;6.37;68.60
26807;BME280;14380;49.910;6.792;2023-04-05T08:27:45;99353.41;;;6.36;70.37
26807;BME280;14380;49.910;6.792;2023-04-05T08:30:12;99347.94;;;6.42;68.99
26807;BME280;14380;49.910;6.792;2023-04-05T08:32:39;99334.88;;;6.70;73.72
26807;BME280;14380;49.910;6.792;2023-04-05T08:35:06;99339.41;;;7.22;70.59
26807;BME280;14380;49.910;6.792;2023-04-05T08:37:35;99338.53;;;7.50;71.22
26807;BME280;14380;49.910;6.792;2023-04-05T08:40:02;99344.38;;;7.58;70.33
26807;BME280;14380;49.910;6.792;2023-04-05T08:42:35;99340.91;;;7.58;66.55
26807;BME280;14380;49.910;6.792;2023-04-05T08:45:03;99327.81;;;8.07;70.03
26807;BME280;14380;49.910;6.792;2023-04-05T08:47:30;99333.34;;;7.99;66.52
26807;BME280;14380;49.910;6.792;2023-04-05T08:50:00;99331.78;;;8.43;65.21
26807;BME280;14380;49.910;6.792;2023-04-05T08:52:28;99332.41;;;8.26;64.82
26807;BME280;14380;49.910;6.792;2023-04-05T08:54:57;99342.78;;;8.05;66.60
26807;BME280;14380;49.910;6.792;2023-04-05T08:57:24;99333.09;;;8.56;64.94
26807;BME280;14380;49.910;6.792;2023-04-05T08:59:52;99328.22;;;8.91;66.72
26807;BME280;14380;49.910;6.792;2023-04-05T09:02:22;99328.91;;;9.19;63.72
26807;BME280;14380;49.910;6.792;2023-04-05T09:04:50;99327.06;;;8.99;64.78
26807;BME280;14380;49.910;6.792;2023-04-05T09:07:18;99333.06;;;9.02;65.50
26807;BME280;14380;49.910;6.792;2023-04-05T09:09:48;99326.47;;;9.57;61.26
26807;BME280;14380;49.910;6.792;2023-04-05T09:12:19;99316.97;;;9.53;61.31
26807;BME280;14380;49.910;6.792;2023-04-05T09:14:46;99329.47;;;9.05;60.63
26807;BME280;14380;49.910;6.792;2023-04-05T09:17:16;99323.78;;;8.70;64.17
26807;BME280;14380;49.910;6.792;2023-04-05T09:19:42;99325.13;;;9.26;64.11
26807;BME280;14380;49.910;6.792;2023-04-05T09:22:09;99322.91;;;9.79;61.55
26807;BME280;14380;49.910;6.792;2023-04-05T09:24:38;99328.22;;;9.57;61.86
26807;BME280;14380;49.910;6.792;2023-04-05T09:27:07;99325.25;;;9.23;62.14
26807;BME280;14380;49.910;6.792;2023-04-05T09:29:37;99317.59;;;9.37;61.58
26807;BME280;14380;49.910;6.792;2023-04-05T09:32:05;99311.50;;;9.37;63.50
26807;BME280;14380;49.910;6.792;2023-04-05T09:34:33;99318.66;;;9.11;62.30
26807;BME280;14380;49.910;6.792;2023-04-05T09:37:02;99323.41;;;9.03;62.95
26807;BME280;14380;49.910;6.792;2023-04-05T09:39:30;99315.59;;;9.65;62.29
26807;BME280;14380;49.910;6.792;2023-04-05T09:42:05;99314.00;;;9.61;61.58
26807;BME280;14380;49.910;6.792;2023-04-05T09:44:59;99312.97;;;9.86;59.92
26807;BME280;14380;49.910;6.792;2023-04-05T09:47:28;99301.03;;;10.76;59.23
26807;BME280;14380;49.910;6.792;2023-04-05T09:49:56;99301.38;;;10.49;60.95
26807;BME280;14380;49.910;6.792;2023-04-05T09:52:24;99302.53;;;10.43;59.48
26807;BME280;14380;49.910;6.792;2023-04-05T09:54:54;99302.22;;;9.70;58.05
26807;BME280;14380;49.910;6.792;2023-04-05T09:57:22;99303.69;;;9.96;60.26
26807;BME280;14380;49.910;6.792;2023-04-05T09:59:52;99302.59;;;9.81;57.96
26807;BME280;14380;49.910;6.792;2023-04-05T10:02:20;99312.94;;;10.06;59.09
26807;BME280;14380;49.910;6.792;2023-04-05T10:04:49;99306.06;;;10.02;58.22
26807;BME280;14380;49.910;6.792;2023-04-05T10:07:17;99296.72;;;9.53;56.64
26807;BME280;14380;49.910;6.792;2023-04-05T10:09:45;99296.59;;;10.38;56.37
26807;BME280;14380;49.910;6.792;2023-04-05T10:12:19;99298.03;;;10.05;59.99
26807;BME280;14380;49.910;6.792;2023-04-05T10:14:47;99296.34;;;10.23;57.11
26807;BME280;14380;49.910;6.792;2023-04-05T10:17:22;99300.94;;;9.99;54.89
26807;BME280;14380;49.910;6.792;2023-04-05T10:19:56;99296.22;;;10.26;55.88
26807;BME280;14380;49.910;6.792;2023-04-05T10:22:31;99298.19;;;10.61;56.40
26807;BME280;14380;49.910;6.792;2023-04-05T10:25:04;99291.47;;;10.54;55.19
26807;BME280;14380;49.910;6.792;2023-04-05T10:27:36;99278.88;;;10.97;55.61
26807;BME280;14380;49.910;6.792;2023-04-05T10:30:06;99283.16;;;11.00;53.95
26807;BME280;14380;49.910;6.792;2023-04-05T10:32:43;99279.59;;;10.82;54.42
26807;BME280;14380;49.910;6.792;2023-04-05T10:35:15;99275.28;;;10.43;53.27
26807;BME280;14380;49.910;6.792;2023-04-05T10:37:53;99266.84;;;10.73;53.55
26807;BME280;14380;49.910;6.792;2023-04-05T10:40:26;99268.59;;;10.91;54.47
26807;BME280;14380;49.910;6.792;2023-04-05T10:42:57;99271.03;;;10.96;54.04
26807;BME280;14380;49.910;6.792;2023-04-05T10:45:26;99264.44;;;11.40;52.98
26807;BME280;14380;49.910;6.792;2023-04-05T10:47:58;99264.03;;;11.12;53.06
26807;BME280;14380;49.910;6.792;2023-04-05T10:50:30;99257.94;;;11.47;55.20
26807;BME280;14380;49.910;6.792;2023-04-05T10:52:58;99258.19;;;11.76;53.72
26807;BME280;14380;49.910;6.792;2023-04-05T10:55:26;99261.34;;;11.49;52.31
26807;BME280;14380;49.910;6.792;2023-04-05T10:57:53;99260.63;;;11.63;50.68
26807;BME280;14380;49.910;6.792;2023-04-05T11:00:22;99258.84;;;11.28;53.05
26807;BME280;14380;49.910;6.792;2023-04-05T11:02:53;99250.53;;;11.54;52.58
26807;BME280;14380;49.910;6.792;2023-04-05T11:05:31;99246.09;;;11.37;52.27
26807;BME280;14380;49.910;6.792;2023-04-05T11:08:02;99249.66;;;11.71;51.28
26807;BME280;14380;49.910;6.792;2023-04-05T11:10:31;99243.84;;;11.98;50.32
26807;BME280;14380;49.910;6.792;2023-04-05T11:13:04;99242.53;;;12.07;52.66
26807;BME280;14380;49.910;6.792;2023-04-05T11:15:32;99239.84;;;11.73;52.23
26807;BME280;14380;49.910;6.792;2023-04-05T11:18:05;99244.78;;;11.28;51.65
26807;BME280;14380;49.910;6.792;2023-04-05T11:20:47;99239.94;;;11.54;53.11
26807;BME280;14380;49.910;6.792;2023-04-05T11:23:16;99239.50;;;11.97;52.68
26807;BME280;14380;49.910;6.792;2023-04-05T11:25:46;99238.38;;;11.85;54.14
26807;BME280;14380;49.910;6.792;2023-04-05T11:28:30;99235.56;;;11.88;52.77
26807;BME280;14380;49.910;6.792;2023-04-05T11:31:11;99230.19;;;12.23;52.67
26807;BME280;14380;49.910;6.792;2023-04-05T11:33:52;99235.41;;;11.73;50.76
26807;BME280;14380;49.910;6.792;2023-04-05T11:36:32;99228.91;;;11.63;51.15
26807;BME280;14380;49.910;6.792;2023-04-05T11:39:24;99222.81;;;11.61;49.89
26807;BME280;14380;49.910;6.792;2023-04-05T11:42:01;99217.78;;;12.08;52.12
26807;BME280;14380;49.910;6.792;2023-04-05T11:44:29;99216.44;;;11.65;53.21
26807;BME280;14380;49.910;6.792;2023-04-05T11:47:05;99215.50;;;12.49;54.32
26807;BME280;14380;49.910;6.792;2023-04-05T11:49:32;99206.94;;;13.07;50.81
26807;BME280;14380;49.910;6.792;2023-04-05T11:52:09;99198.91;;;12.78;49.22
26807;BME280;14380;49.910;6.792;2023-04-05T11:54:36;99207.22;;;12.56;52.39
26807;BME280;14380;49.910;6.792;2023-04-05T11:57:04;99210.03;;;12.69;49.48
26807;BME280;14380;49.910;6.792;2023-04-05T11:59:32;99206.41;;;12.22;50.62
26807;BME280;14380;49.910;6.792;2023-04-05T12:02:00;99198.47;;;12.70;49.04
26807;BME280;14380;49.910;6.792;2023-04-05T12:04:28;99197.47;;;12.24;52.20
26807;BME280;14380;49.910;6.792;2023-04-05T12:07:09;99194.97;;;12.53;50.62
26807;BME280;14380;49.910;6.792;2023-04-05T12:10:02;99199.00;;;12.60;52.01
26807;BME280;14380;49.910;6.792;2023-04-05T12:12:33;99183.44;;;13.01;50.87
26807;BME280;14380;49.910;6.792;2023-04-05T12:15:03;99178.41;;;13.86;52.78
26807;BME280;14380;49.910;6.792;2023-04-05T12:17:42;99177.84;;;13.36;48.26
26807;BME280;14380;49.910;6.792;2023-04-05T12:20:11;99183.31;;;13.63;51.29
26807;BME280;14380;49.910;6.792;2023-04-05T12:22:40;99185.47;;;13.42;50.45
26807;BME280;14380;49.910;6.792;2023-04-05T12:25:08;99174.56;;;13.47;50.20
26807;BME280;14380;49.910;6.792;2023-04-05T12:27:37;99171.81;;;13.03;49.26
26807;BME280;14380;49.910;6.792;2023-04-05T12:30:05;99164.38;;;12.63;51.40
26807;BME280;14380;49.910;6.792;2023-04-05T12:32:35;99168.09;;;12.91;49.10
26807;BME280;14380;49.910;6.792;2023-04-05T12:35:05;99166.13;;;12.95;51.48
26807;BME280;14380;49.910;6.792;2023-04-05T12:37:33;99167.50;;;12.56;50.28
26807;BME280;14380;49.910;6.792;2023-04-05T12:40:03;99161.63;;;12.65;50.11
26807;BME280;14380;49.910;6.792;2023-04-05T12:42:31;99156.09;;;13.45;50.29
26807;BME280;14380;49.910;6.792;2023-04-05T12:45:03;99145.13;;;13.80;51.43
26807;BME280;14380;49.910;6.792;2023-04-05T12:47:32;99145.31;;;13.63;48.70
26807;BME280;14380;49.910;6.792;2023-04-05T12:50:09;99148.16;;;13.89;48.46
26807;BME280;14380;49.910;6.792;2023-04-05T12:52:36;99140.47;;;13.55;49.73
26807;BME280;14380;49.910;6.792;2023-04-05T12:55:13;99146.47;;;13.59;48.99
26807;BME280;14380;49.910;6.792;2023-04-05T12:57:40;99142.06;;;13.72;48.53
26807;BME280;14380;49.910;6.792;2023-04-05T13:00:08;99142.00;;;13.45;50.35
26807;BME280;14380;49.910;6.792;2023-04-05T13:02:36;99140.53;;;13.24;49.69
26807;BME280;14380;49.910;6.792;2023-04-05T13:05:02;99140.56;;;12.94;48.87
26807;BME280;14380;49.910;6.792;2023-04-05T13:07:29;99133.31;;;13.12;49.65
26807;BME280;14380;49.910;6.792;2023-04-05T13:09:56;99133.69;;;12.75;49.28
26807;BME280;14380;49.910;6.792;2023-04-05T13:12:24;99123.13;;;13.04;51.40
26807;BME280;14380;49.910;6.792;2023-04-05T13:14:51;99125.97;;;12.87;51.31